Time;durP1;ratioP1;P1;durP2;ratioP2;P2;SDS_P1;SDS_P2;PMS_P1;PMS_P2;Temp;Humidity;BMP_temperature;BMP_pressure;BME280_temperature;BME280_humidity;BME280_pressure;Samples;Min_cycle;Max_cycle;Signal;HPM_P1;HPM_P2
2023/07/17 00:02:12;;;;;;;3.90;2.28;;;25.60;67.70;;;;;;5007405;28;20034;-51
2023/07/17 00:04:37;;;;;;;3.83;2.13;;;25.60;68.20;;;;;;5008506;28;20030;-51
2023/07/17 00:07:03;;;;;;;4.32;2.22;;;25.60;67.70;;;;;;5024543;28;20089;-51
2023/07/17 00:09:29;;;;;;;5.07;2.05;;;25.60;67.70;;;;;;5005900;28;20208;-51
2023/07/17 00:11:54;;;;;;;4.97;2.20;;;25.50;67.70;;;;;;5006980;28;20108;-51
2023/07/17 00:14:20;;;;;;;3.78;2.05;;;25.50;67.60;;;;;;5007184;28;20026;-51
2023/07/17 00:16:45;;;;;;;2.65;1.90;;;25.50;67.70;;;;;;5006784;28;20037;-51
2023/07/17 00:19:11;;;;;;;4.05;1.83;;;25.50;67.70;;;;;;5007022;28;20437;-51
2023/07/17 00:21:36;;;;;;;4.85;2.15;;;25.40;67.60;;;;;;5024995;28;20386;-51
2023/07/17 00:24:02;;;;;;;5.32;2.42;;;25.40;67.70;;;;;;5007921;28;20097;-51
2023/07/17 00:26:28;;;;;;;2.72;1.90;;;25.40;67.70;;;;;;5039619;28;20064;-51
2023/07/17 00:28:55;;;;;;;4.68;2.08;;;25.40;67.70;;;;;;5018644;28;20429;-51
2023/07/17 00:31:20;;;;;;;3.28;1.90;;;25.30;67.70;;;;;;5016362;28;20048;-51
2023/07/17 00:33:46;;;;;;;3.17;2.08;;;25.30;67.60;;;;;;5012180;28;20054;-51
2023/07/17 00:36:11;;;;;;;3.95;2.20;;;25.30;67.80;;;;;;5022599;28;20042;-51
2023/07/17 00:38:37;;;;;;;3.22;1.85;;;25.30;67.90;;;;;;5025247;28;20026;-51
2023/07/17 00:41:02;;;;;;;4.88;2.08;;;25.30;68.00;;;;;;5024947;28;20053;-52
2023/07/17 00:43:28;;;;;;;4.35;1.90;;;25.30;67.80;;;;;;5024824;28;20464;-52
2023/07/17 00:45:53;;;;;;;3.63;1.70;;;25.30;67.90;;;;;;5025478;28;20471;-51
2023/07/17 00:48:19;;;;;;;4.93;2.20;;;25.30;68.00;;;;;;5023592;28;20371;-51
2023/07/17 00:50:45;;;;;;;4.18;1.95;;;25.20;67.80;;;;;;5005200;28;20045;-51
2023/07/17 00:53:10;;;;;;;8.20;2.17;;;25.20;68.00;;;;;;5008242;28;20026;-51
2023/07/17 00:55:36;;;;;;;3.85;2.10;;;25.20;67.80;;;;;;5008086;28;20026;-51
2023/07/17 00:58:01;;;;;;;3.63;2.05;;;25.20;67.90;;;;;;5024670;28;20378;-52
2023/07/17 01:00:27;;;;;;;7.40;2.28;;;25.20;67.90;;;;;;5016535;28;20105;-52
2023/07/17 01:02:53;;;;;;;3.35;2.22;;;25.10;68.00;;;;;;5024321;28;20033;-52
2023/07/17 01:05:18;;;;;;;3.97;1.95;;;25.20;68.20;;;;;;5024675;28;20069;-52
2023/07/17 01:07:44;;;;;;;3.63;1.90;;;25.10;68.10;;;;;;5025302;28;20042;-52
2023/07/17 01:10:10;;;;;;;2.45;1.90;;;25.10;68.20;;;;;;5007981;28;20057;-52
2023/07/17 01:12:35;;;;;;;4.05;2.00;;;25.10;68.10;;;;;;5024805;28;20037;-52
2023/07/17 01:15:02;;;;;;;4.45;1.83;;;25.10;68.30;;;;;;5025006;28;20030;-52
2023/07/17 01:17:27;;;;;;;4.28;1.90;;;25.10;68.60;;;;;;5024452;28;20030;-52
2023/07/17 01:19:53;;;;;;;6.47;2.35;;;25.00;68.40;;;;;;5024372;28;20461;-53
2023/07/17 01:22:31;;;;;;;4.18;2.15;;;25.00;68.50;;;;;;5024493;28;20451;-54
2023/07/17 01:24:57;;;;;;;4.50;1.90;;;25.00;68.50;;;;;;5005159;28;20081;-54
2023/07/17 01:27:23;;;;;;;2.90;1.90;;;24.90;68.60;;;;;;5006978;28;20030;-54
2023/07/17 01:29:48;;;;;;;3.50;2.28;;;24.90;69.00;;;;;;5024303;28;20033;-54
2023/07/17 01:32:15;;;;;;;3.83;2.22;;;24.90;68.80;;;;;;5024219;28;20033;-54
2023/07/17 01:34:41;;;;;;;3.53;2.08;;;24.90;69.00;;;;;;5025805;28;20034;-54
2023/07/17 01:37:07;;;;;;;4.20;2.47;;;24.90;69.80;;;;;;5025246;28;20045;-54
2023/07/17 01:39:33;;;;;;;3.30;2.22;;;24.80;70.10;;;;;;5009460;28;20034;-54
2023/07/17 01:41:58;;;;;;;6.03;2.38;;;24.80;70.40;;;;;;5005033;28;20042;-54
2023/07/17 01:44:28;;;;;;;4.57;2.20;;;24.80;70.80;;;;;;5018720;28;20093;-54
2023/07/17 01:46:56;;;;;;;3.17;2.10;;;24.70;71.10;;;;;;5024321;28;20057;-54
2023/07/17 01:49:22;;;;;;;3.40;2.22;;;24.70;71.40;;;;;;5012220;28;20117;-54
2023/07/17 01:51:47;;;;;;;5.22;2.50;;;24.70;71.80;;;;;;5023417;28;20037;-54
2023/07/17 01:54:13;;;;;;;3.33;2.17;;;24.60;72.00;;;;;;5022830;28;20109;-54
2023/07/17 01:56:39;;;;;;;6.70;2.38;;;24.60;71.80;;;;;;5023881;28;20097;-54
2023/07/17 01:59:04;;;;;;;4.03;2.33;;;24.60;71.90;;;;;;5026640;28;20026;-54
2023/07/17 02:01:31;;;;;;;2.80;1.80;;;24.60;72.30;;;;;;5022344;28;20064;-54
2023/07/17 02:03:57;;;;;;;3.80;1.90;;;24.50;72.40;;;;;;5018493;28;20386;-54
2023/07/17 02:06:22;;;;;;;4.00;2.13;;;24.50;72.60;;;;;;5028688;28;20042;-54
2023/07/17 02:08:48;;;;;;;6.13;2.10;;;24.50;72.80;;;;;;5028987;28;20034;-54
2023/07/17 02:11:13;;;;;;;3.67;2.15;;;24.40;73.00;;;;;;5027479;28;20034;-54
2023/07/17 02:13:39;;;;;;;4.65;2.20;;;24.50;73.40;;;;;;5028467;28;20017;-54
2023/07/17 02:16:05;;;;;;;5.55;2.20;;;24.40;73.40;;;;;;5029293;28;20141;-54
2023/07/17 02:18:31;;;;;;;3.97;2.25;;;24.40;73.60;;;;;;5022580;28;20566;-54
2023/07/17 02:20:56;;;;;;;6.70;2.53;;;24.40;74.30;;;;;;5013607;28;20030;-53
2023/07/17 02:23:22;;;;;;;7.40;2.35;;;24.40;74.50;;;;;;5027571;28;20022;-54
2023/07/17 02:25:47;;;;;;;4.10;2.28;;;24.40;74.60;;;;;;5011069;28;20119;-54
2023/07/17 02:28:14;;;;;;;3.65;2.05;;;24.30;74.60;;;;;;5026792;28;20037;-54
2023/07/17 02:30:40;;;;;;;3.90;2.20;;;24.30;75.00;;;;;;5025679;28;20030;-54
2023/07/17 02:33:06;;;;;;;5.22;2.25;;;24.30;75.40;;;;;;5028347;28;20040;-54
2023/07/17 02:35:31;;;;;;;5.85;2.25;;;24.30;75.70;;;;;;5026966;28;20026;-54
2023/07/17 02:37:57;;;;;;;4.18;2.28;;;24.30;75.70;;;;;;5027154;28;20026;-54
2023/07/17 02:40:22;;;;;;;5.15;2.25;;;24.20;76.00;;;;;;5028404;28;20065;-54
2023/07/17 02:42:48;;;;;;;6.95;2.30;;;24.20;76.40;;;;;;5028665;28;20060;-54
2023/07/17 02:45:14;;;;;;;6.50;2.72;;;24.20;76.60;;;;;;5026445;28;20156;-54
2023/07/17 02:47:39;;;;;;;5.93;2.17;;;24.20;76.80;;;;;;5022220;28;20031;-54
2023/07/17 02:50:05;;;;;;;4.78;2.35;;;24.10;76.40;;;;;;5017165;28;20049;-53
2023/07/17 02:52:34;;;;;;;4.45;2.00;;;24.10;76.60;;;;;;5027450;28;20041;-54
2023/07/17 02:55:01;;;;;;;4.65;2.30;;;24.10;76.70;;;;;;5027857;28;20052;-54
2023/07/17 02:57:26;;;;;;;4.05;2.20;;;24.10;76.60;;;;;;5027898;28;20052;-54
2023/07/17 02:59:54;;;;;;;5.35;2.50;;;24.10;76.90;;;;;;5014784;28;20471;-54
2023/07/17 03:02:20;;;;;;;4.18;2.20;;;24.10;76.90;;;;;;5023825;28;20052;-54
2023/07/17 03:04:45;;;;;;;3.88;2.10;;;24.10;77.10;;;;;;5007378;28;20030;-54
2023/07/17 03:07:11;;;;;;;5.75;2.30;;;24.10;77.30;;;;;;5014827;28;20030;-53
2023/07/17 03:09:36;;;;;;;5.15;2.38;;;24.00;77.90;;;;;;5026356;28;20030;-54
2023/07/17 03:12:02;;;;;;;4.82;2.53;;;24.00;77.40;;;;;;5027615;28;20026;-54
2023/07/17 03:14:28;;;;;;;5.10;1.90;;;24.00;77.60;;;;;;5026035;28;20021;-54
2023/07/17 03:16:53;;;;;;;4.03;2.15;;;24.00;77.60;;;;;;5026837;28;20030;-54
2023/07/17 03:19:19;;;;;;;3.17;2.03;;;24.00;77.70;;;;;;5025825;28;20038;-54
2023/07/17 03:21:44;;;;;;;3.90;2.17;;;24.00;77.80;;;;;;5027692;28;20038;-54
2023/07/17 03:24:10;;;;;;;3.88;2.13;;;23.90;77.90;;;;;;5017326;28;20041;-54
2023/07/17 03:26:35;;;;;;;4.95;2.05;;;23.90;77.80;;;;;;5001888;28;20036;-54
2023/07/17 03:29:01;;;;;;;4.00;2.00;;;23.90;78.20;;;;;;5017622;28;20065;-54
2023/07/17 03:31:26;;;;;;;4.90;2.10;;;23.90;78.40;;;;;;5026102;28;20045;-54
2023/07/17 03:33:52;;;;;;;3.53;1.95;;;23.90;78.60;;;;;;5024714;28;20028;-54
2023/07/17 03:36:17;;;;;;;3.65;2.20;;;23.90;78.90;;;;;;5010190;28;20034;-54
2023/07/17 03:38:43;;;;;;;4.38;2.42;;;23.90;79.60;;;;;;5026241;28;20026;-54
2023/07/17 03:41:08;;;;;;;4.18;2.10;;;23.80;79.00;;;;;;5009672;28;20097;-55
2023/07/17 03:43:34;;;;;;;4.22;2.00;;;23.80;79.10;;;;;;5015185;28;20029;-54
2023/07/17 03:46:00;;;;;;;3.45;2.40;;;23.80;79.30;;;;;;5027491;28;20429;-54
2023/07/17 03:48:25;;;;;;;4.07;2.20;;;23.80;79.80;;;;;;5028375;28;20018;-54
2023/07/17 03:50:51;;;;;;;4.15;2.40;;;23.80;79.70;;;;;;5027477;28;20037;-54
2023/07/17 03:53:16;;;;;;;3.03;1.98;;;23.80;79.90;;;;;;5014432;28;20027;-54
2023/07/17 03:55:42;;;;;;;6.25;2.17;;;23.80;80.20;;;;;;5022000;28;20065;-53
2023/07/17 03:58:07;;;;;;;4.47;2.20;;;23.80;80.20;;;;;;5024431;28;20057;-54
2023/07/17 04:00:33;;;;;;;2.42;2.00;;;23.80;80.30;;;;;;5041466;28;20081;-54
2023/07/17 04:02:58;;;;;;;2.83;1.80;;;23.70;80.30;;;;;;5018720;28;20053;-54
2023/07/17 04:05:24;;;;;;;3.58;1.80;;;23.70;80.50;;;;;;5022188;28;20034;-54
2023/07/17 04:07:50;;;;;;;4.40;1.85;;;23.70;80.60;;;;;;5006089;28;20040;-54
2023/07/17 04:10:16;;;;;;;4.13;1.98;;;23.70;80.90;;;;;;5022825;28;20030;-54
2023/07/17 04:12:42;;;;;;;3.83;1.92;;;23.60;80.90;;;;;;5026880;28;20056;-54
2023/07/17 04:15:08;;;;;;;3.53;2.17;;;23.60;81.20;;;;;;5025452;28;20022;-54
2023/07/17 04:17:34;;;;;;;4.40;2.20;;;23.60;81.40;;;;;;5016009;28;20382;-54
2023/07/17 04:19:59;;;;;;;4.70;1.98;;;23.60;81.30;;;;;;5019006;28;20113;-54
2023/07/17 04:22:25;;;;;;;3.38;2.17;;;23.60;81.20;;;;;;5009160;28;20049;-54
2023/07/17 04:24:50;;;;;;;3.97;1.90;;;23.60;81.30;;;;;;5024985;28;20409;-54
2023/07/17 04:27:16;;;;;;;7.90;2.20;;;23.60;81.50;;;;;;5023155;28;20156;-54
2023/07/17 04:29:41;;;;;;;5.82;2.08;;;23.60;81.90;;;;;;5024620;28;20033;-54
2023/07/17 04:32:07;;;;;;;5.35;2.15;;;23.60;82.10;;;;;;5025644;28;20026;-54
2023/07/17 04:34:33;;;;;;;4.60;2.10;;;23.50;82.20;;;;;;5007479;28;20030;-54
2023/07/17 04:36:58;;;;;;;3.55;2.30;;;23.50;82.30;;;;;;4992123;28;20037;-54
2023/07/17 04:39:24;;;;;;;3.35;2.03;;;23.50;82.40;;;;;;5026316;28;20065;-54
2023/07/17 04:41:52;;;;;;;5.28;2.35;;;23.50;82.10;;;;;;5008211;28;20034;-54
2023/07/17 04:44:17;;;;;;;3.58;2.00;;;23.50;82.20;;;;;;5024498;28;20033;-54
2023/07/17 04:46:43;;;;;;;4.68;2.13;;;23.50;82.10;;;;;;5011236;28;20041;-54
2023/07/17 04:49:08;;;;;;;3.15;1.90;;;23.50;82.10;;;;;;5015798;28;20033;-54
2023/07/17 04:51:34;;;;;;;3.78;1.80;;;23.50;82.00;;;;;;5026270;28;20060;-54
2023/07/17 04:53:59;;;;;;;4.35;1.92;;;23.50;82.10;;;;;;5018683;28;20023;-54
2023/07/17 04:56:25;;;;;;;4.10;2.13;;;23.50;82.00;;;;;;5014249;28;20034;-53
2023/07/17 04:58:51;;;;;;;4.88;2.00;;;23.50;82.10;;;;;;5012144;28;20022;-55
2023/07/17 05:01:17;;;;;;;4.40;2.25;;;23.50;82.40;;;;;;5025281;28;20041;-53
2023/07/17 05:03:42;;;;;;;3.13;2.00;;;23.50;82.60;;;;;;5025663;28;20383;-54
2023/07/17 05:06:09;;;;;;;4.80;2.35;;;23.50;82.60;;;;;;5025588;28;20131;-54
2023/07/17 05:08:34;;;;;;;8.10;2.42;;;23.50;82.60;;;;;;5024308;28;20094;-54
2023/07/17 05:11:00;;;;;;;4.72;1.95;;;23.50;82.60;;;;;;5024864;28;20382;-53
2023/07/17 05:13:26;;;;;;;7.00;2.63;;;23.50;82.50;;;;;;5022632;28;20026;-54
2023/07/17 05:15:52;;;;;;;6.20;2.25;;;23.50;82.60;;;;;;5024703;28;20058;-53
2023/07/17 05:18:18;;;;;;;6.05;2.38;;;23.50;82.50;;;;;;5008931;28;20034;-54
2023/07/17 05:20:44;;;;;;;5.40;2.45;;;23.50;82.60;;;;;;5024622;28;20034;-54
2023/07/17 05:23:10;;;;;;;5.63;1.98;;;23.50;82.40;;;;;;5023756;28;20018;-54
2023/07/17 05:25:36;;;;;;;6.82;2.65;;;23.50;82.40;;;;;;5025579;28;20038;-54
2023/07/17 05:28:01;;;;;;;8.68;2.47;;;23.50;82.50;;;;;;5024844;28;20026;-54
2023/07/17 05:30:27;;;;;;;10.40;2.47;;;23.50;82.60;;;;;;5006912;28;20058;-54
2023/07/17 05:32:52;;;;;;;7.32;2.65;;;23.50;82.60;;;;;;5007319;28;20028;-54
2023/07/17 05:35:18;;;;;;;5.47;2.30;;;23.50;82.60;;;;;;5028395;28;20053;-54
2023/07/17 05:37:43;;;;;;;7.63;2.80;;;23.50;82.50;;;;;;5017679;28;20552;-54
2023/07/17 05:40:10;;;;;;;3.97;2.25;;;23.50;82.50;;;;;;5021470;28;20416;-54
2023/07/17 05:42:36;;;;;;;4.65;2.70;;;23.50;82.50;;;;;;5027908;28;20034;-54
2023/07/17 05:45:02;;;;;;;8.52;2.20;;;23.50;82.50;;;;;;5028021;28;20117;-54
2023/07/17 05:47:28;;;;;;;5.90;2.38;;;23.50;82.50;;;;;;5028532;28;20090;-53
2023/07/17 05:49:53;;;;;;;6.65;2.70;;;23.50;82.70;;;;;;5016347;28;20077;-54
2023/07/17 05:52:21;;;;;;;8.80;2.70;;;23.50;82.80;;;;;;5026628;28;20034;-54
2023/07/17 05:54:47;;;;;;;8.60;2.72;;;23.50;82.90;;;;;;5013072;28;20026;-54
2023/07/17 05:57:13;;;;;;;8.52;2.53;;;23.50;83.10;;;;;;5027237;28;20048;-53
2023/07/17 05:59:39;;;;;;;7.40;2.85;;;23.50;83.60;;;;;;5028610;28;20026;-53
2023/07/17 06:02:05;;;;;;;6.35;2.50;;;23.60;84.20;;;;;;5028166;28;20048;-54
2023/07/17 06:04:30;;;;;;;5.93;2.50;;;23.60;84.40;;;;;;5027883;28;20088;-54
2023/07/17 06:06:56;;;;;;;6.22;2.33;;;23.60;83.60;;;;;;4996235;28;20093;-54
2023/07/17 06:09:22;;;;;;;5.22;2.30;;;23.60;83.70;;;;;;5028242;28;20038;-53
2023/07/17 06:11:47;;;;;;;6.72;2.60;;;23.60;83.60;;;;;;5028036;28;20049;-54
2023/07/17 06:14:13;;;;;;;5.60;2.58;;;23.60;83.70;;;;;;5027363;28;20022;-54
2023/07/17 06:16:38;;;;;;;4.13;2.60;;;23.60;84.90;;;;;;5026998;28;20126;-58
2023/07/17 06:19:04;;;;;;;3.40;2.28;;;23.60;84.80;;;;;;5027577;28;20404;-53
2023/07/17 06:21:29;;;;;;;9.05;2.15;;;23.60;84.50;;;;;;5028047;28;20056;-54
2023/07/17 06:23:55;;;;;;;9.75;2.50;;;23.60;84.60;;;;;;5027540;28;20036;-54
2023/07/17 06:26:20;;;;;;;9.25;3.42;;;23.60;84.90;;;;;;5028295;28;20089;-54
2023/07/17 06:28:47;;;;;;;12.75;3.00;;;23.70;86.10;;;;;;5011055;28;20030;-54
2023/07/17 06:31:13;;;;;;;13.15;3.08;;;23.70;86.50;;;;;;5028921;28;20034;-53
2023/07/17 06:33:38;;;;;;;5.10;2.45;;;23.70;86.10;;;;;;5028557;28;20026;-54
2023/07/17 06:36:04;;;;;;;8.40;2.90;;;23.70;86.20;;;;;;5027090;28;20033;-54
2023/07/17 06:38:30;;;;;;;6.63;3.00;;;23.70;86.50;;;;;;5027412;28;20037;-53
2023/07/17 06:40:55;;;;;;;8.55;2.88;;;23.70;86.30;;;;;;5028497;28;20082;-54
2023/07/17 06:43:21;;;;;;;9.57;2.80;;;23.80;86.00;;;;;;5027435;28;20034;-54
2023/07/17 06:45:47;;;;;;;10.13;2.88;;;23.80;85.90;;;;;;5027361;28;20045;-53
2023/07/17 06:48:12;;;;;;;8.48;2.70;;;23.80;86.50;;;;;;5026828;28;20034;-54
2023/07/17 06:50:38;;;;;;;10.13;3.03;;;23.80;87.00;;;;;;5026637;28;20044;-54
2023/07/17 06:53:04;;;;;;;20.30;4.10;;;23.80;87.20;;;;;;5026201;28;20045;-54
2023/07/17 06:55:29;;;;;;;18.00;3.85;;;23.80;87.40;;;;;;5027634;28;20026;-54
2023/07/17 06:57:55;;;;;;;10.38;3.42;;;23.80;86.80;;;;;;5011226;28;20217;-53
2023/07/17 07:00:21;;;;;;;17.25;3.53;;;23.90;86.60;;;;;;5008733;28;20034;-53
2023/07/17 07:02:46;;;;;;;11.27;2.80;;;23.90;86.20;;;;;;5009411;28;20081;-53
2023/07/17 07:05:12;;;;;;;14.68;3.15;;;23.90;86.10;;;;;;5008531;28;20086;-53
2023/07/17 07:07:37;;;;;;;12.27;3.30;;;23.90;86.40;;;;;;5024483;28;20040;-53
2023/07/17 07:10:03;;;;;;;8.30;3.55;;;24.00;86.10;;;;;;5027380;28;20033;-53
2023/07/17 07:12:29;;;;;;;11.68;3.35;;;24.00;85.60;;;;;;5026477;28;20117;-53
2023/07/17 07:14:55;;;;;;;8.98;3.25;;;24.00;86.00;;;;;;5026122;28;20045;-53
2023/07/17 07:17:20;;;;;;;8.57;3.00;;;24.00;86.00;;;;;;5006178;28;20027;-53
2023/07/17 07:19:46;;;;;;;23.17;4.65;;;24.00;86.30;;;;;;5020302;28;20030;-53
2023/07/17 07:22:12;;;;;;;19.38;4.20;;;24.00;86.00;;;;;;5008870;28;20032;-53
2023/07/17 07:24:41;;;;;;;21.90;4.25;;;24.00;85.60;;;;;;5007156;28;20034;-53
2023/07/17 07:27:07;;;;;;;13.95;3.85;;;24.00;85.40;;;;;;5006588;28;20035;-53
2023/07/17 07:29:32;;;;;;;15.23;4.05;;;24.00;84.80;;;;;;5008026;28;20072;-54
2023/07/17 07:31:58;;;;;;;15.50;3.33;;;24.00;84.40;;;;;;5006866;28;20050;-53
2023/07/17 07:34:23;;;;;;;15.68;3.78;;;24.00;84.20;;;;;;5006813;28;20041;-53
2023/07/17 07:36:49;;;;;;;17.13;4.13;;;23.90;83.60;;;;;;5006770;28;20026;-56
2023/07/17 07:39:15;;;;;;;16.08;3.50;;;23.90;83.40;;;;;;5006587;28;20026;-53
2023/07/17 07:41:40;;;;;;;10.38;3.78;;;23.90;83.00;;;;;;5006622;28;20057;-53
2023/07/17 07:44:06;;;;;;;15.90;3.92;;;23.80;83.30;;;;;;5006467;28;20026;-53
2023/07/17 07:46:31;;;;;;;11.30;3.75;;;23.80;82.50;;;;;;5007435;28;20498;-52
2023/07/17 07:48:57;;;;;;;6.18;3.53;;;23.80;82.60;;;;;;5006093;28;20030;-53
2023/07/17 07:51:23;;;;;;;10.88;3.80;;;23.80;81.60;;;;;;5007612;28;20465;-53
2023/07/17 07:53:48;;;;;;;11.82;3.53;;;23.80;81.70;;;;;;4989995;28;20553;-53
2023/07/17 07:56:14;;;;;;;21.60;4.55;;;23.80;81.10;;;;;;5005943;28;20364;-53
2023/07/17 07:58:39;;;;;;;25.10;5.18;;;23.80;80.70;;;;;;5007484;28;20463;-54
2023/07/17 08:01:05;;;;;;;25.15;5.10;;;23.80;80.50;;;;;;5006089;28;20104;-53
2023/07/17 08:03:33;;;;;;;20.30;4.70;;;23.80;79.90;;;;;;5005317;28;20073;-53
2023/07/17 08:05:58;;;;;;;29.70;5.82;;;23.80;79.40;;;;;;5006891;28;20053;-53
2023/07/17 08:08:24;;;;;;;20.70;4.90;;;23.80;79.20;;;;;;5005818;28;20030;-53
2023/07/17 08:10:53;;;;;;;13.80;4.68;;;23.80;79.30;;;;;;5017237;28;20021;-53
2023/07/17 08:13:18;;;;;;;15.43;4.85;;;23.80;79.00;;;;;;4992440;28;20061;-53
2023/07/17 08:15:44;;;;;;;13.32;4.15;;;23.80;78.40;;;;;;5025492;28;20082;-53
2023/07/17 08:18:10;;;;;;;15.60;4.05;;;23.80;78.30;;;;;;5026475;28;20053;-53
2023/07/17 08:20:35;;;;;;;12.32;4.68;;;23.80;77.60;;;;;;5024566;28;20030;-53
2023/07/17 08:23:01;;;;;;;16.85;5.18;;;23.80;77.80;;;;;;5024145;28;20032;-53
2023/07/17 08:25:26;;;;;;;14.98;5.30;;;23.80;77.60;;;;;;5024430;28;20038;-53
2023/07/17 08:27:53;;;;;;;15.60;5.18;;;23.90;77.40;;;;;;5023005;28;20055;-53
2023/07/17 08:30:19;;;;;;;18.83;5.15;;;23.90;77.30;;;;;;5023204;28;20038;-53
2023/07/17 08:32:44;;;;;;;16.00;5.13;;;23.90;77.20;;;;;;5023011;28;20137;-53
2023/07/17 08:35:10;;;;;;;26.33;5.25;;;23.90;77.10;;;;;;5024147;28;20157;-53
2023/07/17 08:37:36;;;;;;;30.15;5.88;;;24.00;76.90;;;;;;5026559;28;20022;-53
2023/07/17 08:40:01;;;;;;;37.47;8.63;;;24.00;76.60;;;;;;5025146;28;20030;-53
2023/07/17 08:42:27;;;;;;;30.73;6.63;;;24.00;76.40;;;;;;5024976;28;20040;-53
2023/07/17 08:44:52;;;;;;;94.38;11.93;;;24.00;76.10;;;;;;5026163;28;20561;-53
2023/07/17 08:47:19;;;;;;;65.05;8.10;;;24.00;76.20;;;;;;5024834;28;20168;-53
2023/07/17 08:49:44;;;;;;;54.80;8.15;;;24.00;76.30;;;;;;5025029;28;20030;-53
2023/07/17 08:52:10;;;;;;;74.53;9.32;;;24.10;76.40;;;;;;5024664;28;20025;-53
2023/07/17 08:54:35;;;;;;;58.10;8.45;;;24.00;76.30;;;;;;5008367;28;20030;-53
2023/07/17 08:57:04;;;;;;;81.57;10.75;;;24.00;76.30;;;;;;5026016;28;20022;-53
2023/07/17 08:59:31;;;;;;;35.03;6.30;;;24.00;76.20;;;;;;5023995;28;20035;-53
2023/07/17 09:01:56;;;;;;;29.58;6.63;;;24.00;76.40;;;;;;5003037;28;20026;-53
2023/07/17 09:04:22;;;;;;;35.17;6.43;;;24.00;76.40;;;;;;5008720;28;20386;-53
2023/07/17 09:06:50;;;;;;;37.13;7.30;;;24.00;76.20;;;;;;5024875;28;20034;-53
2023/07/17 09:09:17;;;;;;;57.25;9.18;;;24.00;76.90;;;;;;5025510;28;20065;-53
2023/07/17 09:11:42;;;;;;;33.72;7.57;;;24.00;76.00;;;;;;5023068;28;20042;-52
2023/07/17 09:14:08;;;;;;;43.67;8.73;;;24.00;75.80;;;;;;5010056;28;20037;-53
2023/07/17 09:16:34;;;;;;;46.70;9.07;;;24.00;75.80;;;;;;5027635;28;20034;-52
2023/07/17 09:19:02;;;;;;;45.25;9.48;;;24.10;75.80;;;;;;5008493;28;20022;-53
2023/07/17 09:21:27;;;;;;;58.90;9.73;;;24.10;75.80;;;;;;5016863;28;20474;-53
2023/07/17 09:23:54;;;;;;;98.88;14.25;;;24.10;75.30;;;;;;5008761;28;20034;-56
2023/07/17 09:26:21;;;;;;;56.10;10.45;;;24.10;75.20;;;;;;5008873;28;20094;-53
2023/07/17 09:28:51;;;;;;;53.92;10.40;;;24.10;75.00;;;;;;5014785;28;20030;-53
2023/07/17 09:31:27;;;;;;;65.25;9.57;;;24.10;74.90;;;;;;5027555;28;20125;-53
2023/07/17 09:33:58;;;;;;;89.57;13.45;;;24.10;75.10;;;;;;5027912;28;20022;-53
2023/07/17 09:36:24;;;;;;;46.03;9.60;;;24.20;75.20;;;;;;5029829;28;20037;-53
2023/07/17 09:38:54;;;;;;;52.03;9.88;;;24.20;75.30;;;;;;5029474;28;20022;-53
2023/07/17 09:41:26;;;;;;;54.78;10.70;;;24.20;75.40;;;;;;5011595;28;20068;-53
2023/07/17 09:44:03;;;;;;;56.65;10.15;;;24.20;75.30;;;;;;5028156;28;20022;-52
2023/07/17 09:46:29;;;;;;;68.65;9.73;;;24.20;75.40;;;;;;5029485;28;20034;-53
2023/07/17 09:48:55;;;;;;;91.95;14.02;;;24.20;75.20;;;;;;5028118;28;20029;-53
2023/07/17 09:51:21;;;;;;;91.85;13.07;;;24.30;75.20;;;;;;5007434;28;20125;-54
2023/07/17 09:53:47;;;;;;;69.80;12.05;;;24.30;75.10;;;;;;5023935;28;20033;-53
2023/07/17 09:56:17;;;;;;;61.53;10.40;;;24.40;75.00;;;;;;5010753;28;20049;-53
2023/07/17 09:58:50;;;;;;;67.30;12.38;;;24.40;74.90;;;;;;5027526;28;20120;-53
2023/07/17 10:01:17;;;;;;;52.65;10.00;;;24.50;74.60;;;;;;5014680;28;20462;-53
2023/07/17 10:03:47;;;;;;;57.28;9.63;;;24.50;74.30;;;;;;5007767;28;20031;-53
2023/07/17 10:06:16;;;;;;;42.03;9.02;;;24.60;74.20;;;;;;5008835;28;20048;-53
2023/07/17 10:08:46;;;;;;;69.15;8.98;;;24.60;73.80;;;;;;5016672;28;20049;-53
2023/07/17 10:11:14;;;;;;;61.70;10.05;;;24.60;73.70;;;;;;5026967;28;20060;-53
2023/07/17 10:13:40;;;;;;;51.60;9.80;;;24.70;73.70;;;;;;5010450;28;20053;-53
2023/07/17 10:16:06;;;;;;;41.58;7.45;;;24.80;73.70;;;;;;5028487;28;20030;-53
2023/07/17 10:18:31;;;;;;;42.10;9.18;;;24.80;73.60;;;;;;5025425;28;20378;-53
2023/07/17 10:20:57;;;;;;;55.25;8.93;;;24.80;73.60;;;;;;5020717;28;20025;-53
2023/07/17 10:23:24;;;;;;;34.45;7.05;;;24.80;73.50;;;;;;5019259;28;20045;-53
2023/07/17 10:25:50;;;;;;;33.88;6.82;;;24.80;73.50;;;;;;5023152;28;20030;-53
2023/07/17 10:28:15;;;;;;;38.50;7.93;;;24.80;73.10;;;;;;5011244;28;20072;-53
2023/07/17 10:30:41;;;;;;;38.05;6.95;;;24.80;72.90;;;;;;5022197;28;20057;-53
2023/07/17 10:33:14;;;;;;;45.65;7.43;;;24.80;72.80;;;;;;5025319;28;20034;-53
2023/07/17 10:35:46;;;;;;;49.85;8.35;;;24.80;72.90;;;;;;5006345;28;20117;-53
2023/07/17 10:38:17;;;;;;;59.67;9.68;;;24.80;73.00;;;;;;5026597;28;20049;-53
2023/07/17 10:40:43;;;;;;;58.42;8.88;;;24.90;73.40;;;;;;5022667;28;20136;-52
2023/07/17 10:43:18;;;;;;;30.30;7.65;;;24.90;74.10;;;;;;5012958;28;20098;-53
2023/07/17 10:45:44;;;;;;;34.42;6.80;;;24.90;73.30;;;;;;5006696;28;20105;-53
2023/07/17 10:48:10;;;;;;;43.90;7.63;;;25.00;73.10;;;;;;5026113;28;20026;-53
2023/07/17 10:50:37;;;;;;;32.88;7.30;;;25.00;73.00;;;;;;5023004;28;20038;-53
2023/07/17 10:53:03;;;;;;;42.42;7.60;;;25.00;73.20;;;;;;5019267;28;20097;-53
2023/07/17 10:55:30;;;;;;;39.20;7.90;;;25.10;73.30;;;;;;5020558;28;20073;-53
2023/07/17 10:57:56;;;;;;;51.25;7.65;;;25.10;72.80;;;;;;5003880;28;20033;-53
2023/07/17 11:00:22;;;;;;;46.63;8.05;;;25.10;72.70;;;;;;5026558;28;20034;-53
2023/07/17 11:02:47;;;;;;;40.65;7.50;;;25.30;72.70;;;;;;5024034;28;20080;-53
2023/07/17 11:05:13;;;;;;;58.30;9.85;;;25.30;72.40;;;;;;5029327;28;20033;-53
2023/07/17 11:07:39;;;;;;;63.67;11.48;;;25.30;72.20;;;;;;5029764;28;20115;-53
2023/07/17 11:10:10;;;;;;;53.28;9.55;;;25.40;72.10;;;;;;5032009;28;20580;-53
2023/07/17 11:12:36;;;;;;;52.22;10.00;;;25.50;72.10;;;;;;5023266;28;20033;-53
2023/07/17 11:15:03;;;;;;;51.13;8.10;;;25.50;71.90;;;;;;5030806;28;20112;-53
2023/07/17 11:17:29;;;;;;;34.90;7.07;;;25.60;71.70;;;;;;5022504;28;20091;-52
2023/07/17 11:20:03;;;;;;;44.20;7.57;;;25.60;71.40;;;;;;5024524;28;20105;-53
2023/07/17 11:22:32;;;;;;;56.88;9.45;;;25.70;71.40;;;;;;5019800;28;20031;-53
2023/07/17 11:24:57;;;;;;;38.03;8.30;;;25.70;71.50;;;;;;5005894;28;20046;-53
2023/07/17 11:27:23;;;;;;;36.85;8.27;;;25.80;71.20;;;;;;5018932;28;20030;-52
2023/07/17 11:29:50;;;;;;;45.20;8.32;;;25.90;71.20;;;;;;5017649;28;20034;-53
2023/07/17 11:32:19;;;;;;;37.17;7.47;;;26.00;71.20;;;;;;5006412;28;20041;-53
2023/07/17 11:34:54;;;;;;;43.65;7.90;;;26.00;70.90;;;;;;5013167;28;20038;-53
2023/07/17 11:37:34;;;;;;;46.47;8.07;;;26.10;71.10;;;;;;5017220;28;20033;-53
2023/07/17 11:40:07;;;;;;;33.72;7.55;;;26.10;70.80;;;;;;5024169;28;20292;-53
2023/07/17 11:42:58;;;;;;;37.45;7.47;;;26.20;70.70;;;;;;5020081;28;20089;-53
2023/07/17 11:45:25;;;;;;;48.03;7.60;;;26.20;70.50;;;;;;5010385;28;20030;-53
2023/07/17 11:47:52;;;;;;;44.65;8.13;;;26.30;70.10;;;;;;5016404;28;20033;-53
2023/07/17 11:50:23;;;;;;;54.85;8.68;;;26.40;70.00;;;;;;5021824;28;20045;-52
2023/07/17 11:52:48;;;;;;;47.30;9.38;;;26.40;69.90;;;;;;5006666;28;20022;-53
2023/07/17 11:55:19;;;;;;;55.88;9.73;;;26.50;69.70;;;;;;5008271;28;20022;-53
2023/07/17 11:57:51;;;;;;;31.98;8.18;;;26.60;69.50;;;;;;5022172;28;20021;-53
2023/07/17 12:00:17;;;;;;;40.90;8.48;;;26.70;69.40;;;;;;5028423;28;20026;-53
2023/07/17 12:02:44;;;;;;;47.13;8.60;;;26.70;69.20;;;;;;5018613;28;20030;-53
2023/07/17 12:05:09;;;;;;;40.75;8.23;;;26.80;69.10;;;;;;5023151;28;20172;-53
2023/07/17 12:07:35;;;;;;;40.63;7.63;;;26.80;68.80;;;;;;5015873;28;20041;-53
2023/07/17 12:10:00;;;;;;;40.15;8.13;;;26.90;68.60;;;;;;5015049;28;20030;-53
2023/07/17 12:12:26;;;;;;;48.45;8.45;;;26.90;68.30;;;;;;5019577;28;20064;-53
2023/07/17 12:14:52;;;;;;;48.17;8.35;;;26.90;68.30;;;;;;5005644;28;20482;-53
2023/07/17 12:17:17;;;;;;;46.17;9.38;;;27.00;68.20;;;;;;5006930;28;20053;-53
2023/07/17 12:19:43;;;;;;;38.13;7.22;;;27.00;67.80;;;;;;5019112;28;20066;-54
2023/07/17 12:22:08;;;;;;;70.97;11.70;;;27.10;68.00;;;;;;5024805;28;20083;-54
2023/07/17 12:24:34;;;;;;;64.15;11.02;;;27.20;67.80;;;;;;5021377;28;20026;-53
2023/07/17 12:26:59;;;;;;;49.53;10.30;;;27.20;67.50;;;;;;5022836;28;20022;-53
2023/07/17 12:29:25;;;;;;;44.47;10.38;;;27.30;67.30;;;;;;5021212;28;20037;-53
2023/07/17 12:31:50;;;;;;;41.00;8.13;;;27.30;66.90;;;;;;5004923;28;20037;-53
2023/07/17 12:34:16;;;;;;;41.60;8.10;;;27.30;66.80;;;;;;5004869;28;20026;-52
2023/07/17 12:36:42;;;;;;;46.22;7.93;;;27.40;66.70;;;;;;5017875;28;20033;-53